sensor_id;sensor_type;location;lat;lon;timestamp;P1;durP1;ratioP1;P2;durP2;ratioP2
21848;SDS011;11089;49.852;19.700;2023-05-10T00:01:03;8.43;;;3.65;;
21848;SDS011;11089;49.852;19.700;2023-05-10T00:04:04;6.40;;;3.70;;
21848;SDS011;11089;49.852;19.700;2023-05-10T00:07:05;6.40;;;3.42;;
21848;SDS011;11089;49.852;19.700;2023-05-10T00:10:06;4.85;;;3.33;;
21848;SDS011;11089;49.852;19.700;2023-05-10T00:13:07;5.60;;;3.20;;
21848;SDS011;11089;49.852;19.700;2023-05-10T00:16:08;5.38;;;3.08;;
21848;SDS011;11089;49.852;19.700;2023-05-10T00:19:09;5.88;;;3.22;;
21848;SDS011;11089;49.852;19.700;2023-05-10T00:22:10;6.63;;;3.53;;
21848;SDS011;11089;49.852;19.700;2023-05-10T00:25:11;5.70;;;3.80;;
21848;SDS011;11089;49.852;19.700;2023-05-10T00:28:12;5.72;;;3.60;;
21848;SDS011;11089;49.852;19.700;2023-05-10T00:31:13;6.82;;;4.50;;
21848;SDS011;11089;49.852;19.700;2023-05-10T00:34:14;8.40;;;4.50;;
21848;SDS011;11089;49.852;19.700;2023-05-10T00:37:15;8.52;;;4.75;;
21848;SDS011;11089;49.852;19.700;2023-05-10T00:40:16;8.80;;;4.80;;
21848;SDS011;11089;49.852;19.700;2023-05-10T00:43:17;8.63;;;4.28;;
21848;SDS011;11089;49.852;19.700;2023-05-10T00:46:18;10.65;;;5.10;;
21848;SDS011;11089;49.852;19.700;2023-05-10T00:49:19;9.60;;;4.93;;
21848;SDS011;11089;49.852;19.700;2023-05-10T00:52:21;11.05;;;5.05;;
21848;SDS011;11089;49.852;19.700;2023-05-10T00:55:23;13.93;;;5.80;;
21848;SDS011;11089;49.852;19.700;2023-05-10T00:58:24;8.18;;;4.25;;
21848;SDS011;11089;49.852;19.700;2023-05-10T01:01:28;5.38;;;4.00;;
21848;SDS011;11089;49.852;19.700;2023-05-10T01:04:29;9.32;;;4.82;;
21848;SDS011;11089;49.852;19.700;2023-05-10T01:07:30;5.43;;;3.28;;
21848;SDS011;11089;49.852;19.700;2023-05-10T01:10:31;5.78;;;3.70;;
21848;SDS011;11089;49.852;19.700;2023-05-10T01:13:38;6.20;;;3.70;;
21848;SDS011;11089;49.852;19.700;2023-05-10T01:16:41;5.05;;;3.20;;
21848;SDS011;11089;49.852;19.700;2023-05-10T01:19:44;5.57;;;3.50;;
21848;SDS011;11089;49.852;19.700;2023-05-10T01:42:55;5.18;;;3.10;;
21848;SDS011;11089;49.852;19.700;2023-05-10T01:46:04;7.28;;;3.50;;
21848;SDS011;11089;49.852;19.700;2023-05-10T01:49:14;6.53;;;3.20;;
21848;SDS011;11089;49.852;19.700;2023-05-10T01:52:41;4.88;;;3.30;;
21848;SDS011;11089;49.852;19.700;2023-05-10T01:55:46;6.30;;;3.47;;
21848;SDS011;11089;49.852;19.700;2023-05-10T01:58:49;6.82;;;3.50;;
21848;SDS011;11089;49.852;19.700;2023-05-10T02:01:52;4.25;;;3.45;;
21848;SDS011;11089;49.852;19.700;2023-05-10T02:04:54;6.47;;;3.70;;
21848;SDS011;11089;49.852;19.700;2023-05-10T02:07:57;6.93;;;3.72;;
21848;SDS011;11089;49.852;19.700;2023-05-10T02:11:01;4.70;;;3.30;;
21848;SDS011;11089;49.852;19.700;2023-05-10T02:14:04;5.20;;;3.38;;
21848;SDS011;11089;49.852;19.700;2023-05-10T02:17:08;5.45;;;3.47;;
21848;SDS011;11089;49.852;19.700;2023-05-10T02:20:09;5.95;;;3.85;;
21848;SDS011;11089;49.852;19.700;2023-05-10T02:23:11;8.02;;;4.28;;
21848;SDS011;11089;49.852;19.700;2023-05-10T02:26:14;8.45;;;4.72;;
21848;SDS011;11089;49.852;19.700;2023-05-10T02:29:16;7.40;;;3.67;;
21848;SDS011;11089;49.852;19.700;2023-05-10T02:32:19;5.93;;;3.40;;
21848;SDS011;11089;49.852;19.700;2023-05-10T02:35:21;7.22;;;4.38;;
21848;SDS011;11089;49.852;19.700;2023-05-10T02:38:23;6.82;;;3.97;;
21848;SDS011;11089;49.852;19.700;2023-05-10T02:41:27;6.45;;;3.83;;
21848;SDS011;11089;49.852;19.700;2023-05-10T02:44:31;7.30;;;3.63;;
21848;SDS011;11089;49.852;19.700;2023-05-10T02:47:33;8.00;;;3.75;;
21848;SDS011;11089;49.852;19.700;2023-05-10T02:50:35;5.90;;;3.55;;
21848;SDS011;11089;49.852;19.700;2023-05-10T02:53:38;5.20;;;3.17;;
21848;SDS011;11089;49.852;19.700;2023-05-10T02:56:42;7.07;;;3.35;;
21848;SDS011;11089;49.852;19.700;2023-05-10T02:59:50;4.97;;;3.35;;
21848;SDS011;11089;49.852;19.700;2023-05-10T03:02:51;8.05;;;3.70;;
21848;SDS011;11089;49.852;19.700;2023-05-10T03:05:53;6.68;;;3.60;;
21848;SDS011;11089;49.852;19.700;2023-05-10T03:08:55;9.85;;;3.78;;
21848;SDS011;11089;49.852;19.700;2023-05-10T03:18:17;5.95;;;3.90;;
21848;SDS011;11089;49.852;19.700;2023-05-10T03:21:22;4.80;;;3.55;;
21848;SDS011;11089;49.852;19.700;2023-05-10T03:24:28;4.28;;;3.38;;
21848;SDS011;11089;49.852;19.700;2023-05-10T03:27:31;7.35;;;3.90;;
21848;SDS011;11089;49.852;19.700;2023-05-10T03:30:34;8.68;;;4.70;;
21848;SDS011;11089;49.852;19.700;2023-05-10T03:33:45;4.70;;;3.33;;
21848;SDS011;11089;49.852;19.700;2023-05-10T03:36:49;7.60;;;3.75;;
21848;SDS011;11089;49.852;19.700;2023-05-10T03:39:50;6.75;;;3.65;;
21848;SDS011;11089;49.852;19.700;2023-05-10T03:42:51;6.78;;;3.97;;
21848;SDS011;11089;49.852;19.700;2023-05-10T03:45:52;5.40;;;3.58;;
21848;SDS011;11089;49.852;19.700;2023-05-10T03:48:53;7.55;;;3.50;;
21848;SDS011;11089;49.852;19.700;2023-05-10T03:51:54;6.35;;;3.83;;
21848;SDS011;11089;49.852;19.700;2023-05-10T03:54:55;6.03;;;3.30;;
21848;SDS011;11089;49.852;19.700;2023-05-10T03:57:56;7.00;;;3.17;;
21848;SDS011;11089;49.852;19.700;2023-05-10T04:00:57;4.95;;;3.22;;
21848;SDS011;11089;49.852;19.700;2023-05-10T04:03:58;8.10;;;3.55;;
21848;SDS011;11089;49.852;19.700;2023-05-10T04:06:58;6.60;;;3.50;;
21848;SDS011;11089;49.852;19.700;2023-05-10T04:09:59;6.13;;;3.33;;
21848;SDS011;11089;49.852;19.700;2023-05-10T04:13:01;6.72;;;3.72;;
21848;SDS011;11089;49.852;19.700;2023-05-10T04:16:02;6.45;;;4.25;;
21848;SDS011;11089;49.852;19.700;2023-05-10T04:19:03;5.45;;;3.55;;
21848;SDS011;11089;49.852;19.700;2023-05-10T04:22:04;7.05;;;3.50;;
21848;SDS011;11089;49.852;19.700;2023-05-10T04:25:05;6.97;;;3.45;;
21848;SDS011;11089;49.852;19.700;2023-05-10T04:28:07;6.70;;;4.10;;
21848;SDS011;11089;49.852;19.700;2023-05-10T04:31:08;6.25;;;3.75;;
21848;SDS011;11089;49.852;19.700;2023-05-10T04:34:10;6.18;;;3.85;;
21848;SDS011;11089;49.852;19.700;2023-05-10T04:37:11;5.72;;;3.50;;
21848;SDS011;11089;49.852;19.700;2023-05-10T04:40:12;5.47;;;3.60;;
21848;SDS011;11089;49.852;19.700;2023-05-10T04:43:13;7.95;;;4.20;;
21848;SDS011;11089;49.852;19.700;2023-05-10T04:46:14;4.95;;;3.45;;
21848;SDS011;11089;49.852;19.700;2023-05-10T04:49:15;6.32;;;3.50;;
21848;SDS011;11089;49.852;19.700;2023-05-10T04:52:16;6.13;;;3.42;;
21848;SDS011;11089;49.852;19.700;2023-05-10T04:55:18;5.70;;;3.47;;
21848;SDS011;11089;49.852;19.700;2023-05-10T04:58:19;7.38;;;3.50;;
21848;SDS011;11089;49.852;19.700;2023-05-10T05:01:20;5.32;;;3.25;;
21848;SDS011;11089;49.852;19.700;2023-05-10T05:04:20;5.80;;;3.30;;
21848;SDS011;11089;49.852;19.700;2023-05-10T05:07:23;7.10;;;4.10;;
21848;SDS011;11089;49.852;19.700;2023-05-10T05:10:24;6.85;;;4.28;;
21848;SDS011;11089;49.852;19.700;2023-05-10T05:13:25;6.55;;;4.40;;
21848;SDS011;11089;49.852;19.700;2023-05-10T05:16:26;6.93;;;4.60;;
21848;SDS011;11089;49.852;19.700;2023-05-10T05:19:27;6.82;;;3.88;;
21848;SDS011;11089;49.852;19.700;2023-05-10T05:22:28;5.57;;;3.90;;
21848;SDS011;11089;49.852;19.700;2023-05-10T05:25:29;7.55;;;4.07;;
21848;SDS011;11089;49.852;19.700;2023-05-10T05:28:30;7.10;;;4.80;;
21848;SDS011;11089;49.852;19.700;2023-05-10T05:31:34;15.30;;;7.25;;
21848;SDS011;11089;49.852;19.700;2023-05-10T05:34:35;19.30;;;10.13;;
21848;SDS011;11089;49.852;19.700;2023-05-10T05:37:36;25.67;;;13.88;;
21848;SDS011;11089;49.852;19.700;2023-05-10T05:40:37;17.80;;;11.52;;
21848;SDS011;11089;49.852;19.700;2023-05-10T05:43:38;13.63;;;8.77;;
21848;SDS011;11089;49.852;19.700;2023-05-10T05:46:39;14.23;;;8.70;;
21848;SDS011;11089;49.852;19.700;2023-05-10T05:49:40;14.95;;;8.48;;
21848;SDS011;11089;49.852;19.700;2023-05-10T05:52:41;17.42;;;9.68;;
21848;SDS011;11089;49.852;19.700;2023-05-10T05:56:03;14.32;;;8.18;;
21848;SDS011;11089;49.852;19.700;2023-05-10T05:59:03;11.80;;;7.15;;
21848;SDS011;11089;49.852;19.700;2023-05-10T06:02:04;12.73;;;7.10;;
21848;SDS011;11089;49.852;19.700;2023-05-10T06:05:05;12.60;;;7.07;;
21848;SDS011;11089;49.852;19.700;2023-05-10T06:08:07;11.80;;;6.13;;
21848;SDS011;11089;49.852;19.700;2023-05-10T06:11:08;9.10;;;5.55;;
21848;SDS011;11089;49.852;19.700;2023-05-10T06:14:09;10.43;;;6.35;;
21848;SDS011;11089;49.852;19.700;2023-05-10T06:17:10;16.17;;;7.05;;
21848;SDS011;11089;49.852;19.700;2023-05-10T06:20:11;18.42;;;9.02;;
21848;SDS011;11089;49.852;19.700;2023-05-10T06:23:13;15.68;;;9.27;;
21848;SDS011;11089;49.852;19.700;2023-05-10T06:26:14;15.30;;;8.63;;
21848;SDS011;11089;49.852;19.700;2023-05-10T06:29:14;17.20;;;9.15;;
21848;SDS011;11089;49.852;19.700;2023-05-10T06:32:16;15.80;;;8.57;;
21848;SDS011;11089;49.852;19.700;2023-05-10T06:35:17;15.77;;;8.73;;
21848;SDS011;11089;49.852;19.700;2023-05-10T06:38:18;18.42;;;8.40;;
21848;SDS011;11089;49.852;19.700;2023-05-10T06:41:19;15.40;;;9.43;;
21848;SDS011;11089;49.852;19.700;2023-05-10T06:44:21;13.95;;;7.97;;
21848;SDS011;11089;49.852;19.700;2023-05-10T06:47:22;13.77;;;8.48;;
21848;SDS011;11089;49.852;19.700;2023-05-10T06:50:23;11.40;;;7.07;;
21848;SDS011;11089;49.852;19.700;2023-05-10T06:53:24;12.02;;;6.53;;
21848;SDS011;11089;49.852;19.700;2023-05-10T06:56:25;11.63;;;5.78;;
21848;SDS011;11089;49.852;19.700;2023-05-10T06:59:26;8.52;;;5.80;;
21848;SDS011;11089;49.852;19.700;2023-05-10T07:02:27;9.80;;;5.97;;
21848;SDS011;11089;49.852;19.700;2023-05-10T07:05:28;10.25;;;6.20;;
21848;SDS011;11089;49.852;19.700;2023-05-10T07:08:32;15.98;;;9.27;;
21848;SDS011;11089;49.852;19.700;2023-05-10T07:11:33;13.25;;;6.97;;
21848;SDS011;11089;49.852;19.700;2023-05-10T07:14:34;9.70;;;5.32;;
21848;SDS011;11089;49.852;19.700;2023-05-10T07:17:35;10.70;;;5.28;;
21848;SDS011;11089;49.852;19.700;2023-05-10T07:20:36;9.27;;;5.40;;
21848;SDS011;11089;49.852;19.700;2023-05-10T07:23:37;7.53;;;4.80;;
21848;SDS011;11089;49.852;19.700;2023-05-10T07:26:38;8.20;;;4.72;;
21848;SDS011;11089;49.852;19.700;2023-05-10T07:29:39;8.20;;;4.10;;
21848;SDS011;11089;49.852;19.700;2023-05-10T07:32:39;6.53;;;4.55;;
21848;SDS011;11089;49.852;19.700;2023-05-10T07:35:42;7.00;;;4.05;;
21848;SDS011;11089;49.852;19.700;2023-05-10T07:38:43;5.78;;;3.75;;
21848;SDS011;11089;49.852;19.700;2023-05-10T07:41:44;7.47;;;3.88;;
21848;SDS011;11089;49.852;19.700;2023-05-10T07:44:45;6.72;;;4.22;;
21848;SDS011;11089;49.852;19.700;2023-05-10T07:47:46;5.53;;;3.50;;
21848;SDS011;11089;49.852;19.700;2023-05-10T07:50:47;6.75;;;3.95;;
21848;SDS011;11089;49.852;19.700;2023-05-10T07:53:47;5.57;;;4.13;;
21848;SDS011;11089;49.852;19.700;2023-05-10T07:56:48;6.75;;;3.95;;
21848;SDS011;11089;49.852;19.700;2023-05-10T07:59:49;4.88;;;3.08;;
21848;SDS011;11089;49.852;19.700;2023-05-10T08:02:50;4.40;;;2.70;;
21848;SDS011;11089;49.852;19.700;2023-05-10T08:05:51;5.80;;;3.10;;
21848;SDS011;11089;49.852;19.700;2023-05-10T08:08:52;7.15;;;3.55;;
21848;SDS011;11089;49.852;19.700;2023-05-10T08:11:54;4.68;;;3.33;;
21848;SDS011;11089;49.852;19.700;2023-05-10T08:14:55;3.55;;;2.75;;
21848;SDS011;11089;49.852;19.700;2023-05-10T08:17:56;3.53;;;2.60;;
21848;SDS011;11089;49.852;19.700;2023-05-10T08:20:56;7.47;;;4.40;;
21848;SDS011;11089;49.852;19.700;2023-05-10T08:23:57;4.70;;;3.20;;
21848;SDS011;11089;49.852;19.700;2023-05-10T08:26:58;5.97;;;2.65;;
21848;SDS011;11089;49.852;19.700;2023-05-10T08:29:59;5.07;;;2.40;;
21848;SDS011;11089;49.852;19.700;2023-05-10T08:33:00;2.75;;;2.25;;
21848;SDS011;11089;49.852;19.700;2023-05-10T08:36:01;3.85;;;2.80;;
21848;SDS011;11089;49.852;19.700;2023-05-10T08:39:02;4.53;;;2.50;;
21848;SDS011;11089;49.852;19.700;2023-05-10T08:42:03;5.90;;;2.65;;
21848;SDS011;11089;49.852;19.700;2023-05-10T08:45:05;3.92;;;2.42;;
21848;SDS011;11089;49.852;19.700;2023-05-10T08:48:08;4.50;;;2.30;;
21848;SDS011;11089;49.852;19.700;2023-05-10T08:51:12;5.13;;;2.42;;
21848;SDS011;11089;49.852;19.700;2023-05-10T08:54:22;4.10;;;2.50;;
21848;SDS011;11089;49.852;19.700;2023-05-10T08:57:24;5.30;;;3.83;;
21848;SDS011;11089;49.852;19.700;2023-05-10T09:00:26;3.22;;;2.40;;
21848;SDS011;11089;49.852;19.700;2023-05-10T09:03:28;3.63;;;2.65;;
21848;SDS011;11089;49.852;19.700;2023-05-10T09:06:29;3.13;;;2.53;;
21848;SDS011;11089;49.852;19.700;2023-05-10T09:09:32;3.45;;;2.40;;
21848;SDS011;11089;49.852;19.700;2023-05-10T09:12:35;2.20;;;2.00;;
21848;SDS011;11089;49.852;19.700;2023-05-10T09:15:36;2.38;;;1.92;;
21848;SDS011;11089;49.852;19.700;2023-05-10T09:18:37;5.85;;;2.90;;
21848;SDS011;11089;49.852;19.700;2023-05-10T09:21:38;3.90;;;2.10;;
21848;SDS011;11089;49.852;19.700;2023-05-10T09:24:39;5.15;;;2.25;;
21848;SDS011;11089;49.852;19.700;2023-05-10T09:27:46;6.15;;;2.63;;
21848;SDS011;11089;49.852;19.700;2023-05-10T09:30:47;4.13;;;2.30;;
21848;SDS011;11089;49.852;19.700;2023-05-10T09:33:53;4.40;;;3.22;;
21848;SDS011;11089;49.852;19.700;2023-05-10T09:36:57;6.72;;;2.80;;
21848;SDS011;11089;49.852;19.700;2023-05-10T09:40:06;3.30;;;2.40;;
21848;SDS011;11089;49.852;19.700;2023-05-10T09:43:08;4.90;;;2.95;;
21848;SDS011;11089;49.852;19.700;2023-05-10T09:46:10;3.55;;;2.40;;
21848;SDS011;11089;49.852;19.700;2023-05-10T09:49:14;5.15;;;2.53;;
21848;SDS011;11089;49.852;19.700;2023-05-10T09:52:14;3.72;;;2.22;;
21848;SDS011;11089;49.852;19.700;2023-05-10T09:55:15;3.25;;;2.60;;
21848;SDS011;11089;49.852;19.700;2023-05-10T09:58:17;2.95;;;2.63;;
21848;SDS011;11089;49.852;19.700;2023-05-10T10:01:18;3.75;;;3.03;;
21848;SDS011;11089;49.852;19.700;2023-05-10T10:04:19;3.17;;;2.75;;
21848;SDS011;11089;49.852;19.700;2023-05-10T10:07:24;2.42;;;2.05;;
21848;SDS011;11089;49.852;19.700;2023-05-10T10:10:26;5.03;;;2.58;;
21848;SDS011;11089;49.852;19.700;2023-05-10T10:13:28;2.90;;;2.38;;
21848;SDS011;11089;49.852;19.700;2023-05-10T10:16:30;6.18;;;2.70;;
21848;SDS011;11089;49.852;19.700;2023-05-10T10:19:35;2.53;;;2.13;;
21848;SDS011;11089;49.852;19.700;2023-05-10T10:22:36;6.78;;;3.60;;
21848;SDS011;11089;49.852;19.700;2023-05-10T10:25:37;5.05;;;3.03;;
21848;SDS011;11089;49.852;19.700;2023-05-10T10:35:35;3.88;;;2.50;;
21848;SDS011;11089;49.852;19.700;2023-05-10T10:38:38;3.33;;;2.42;;
21848;SDS011;11089;49.852;19.700;2023-05-10T10:41:59;4.43;;;2.55;;
21848;SDS011;11089;49.852;19.700;2023-05-10T10:48:21;4.07;;;2.55;;
21848;SDS011;11089;49.852;19.700;2023-05-10T10:51:23;2.75;;;2.00;;
21848;SDS011;11089;49.852;19.700;2023-05-10T10:54:27;5.60;;;2.40;;
21848;SDS011;11089;49.852;19.700;2023-05-10T10:57:28;9.20;;;2.60;;
21848;SDS011;11089;49.852;19.700;2023-05-10T11:00:36;3.65;;;2.58;;
21848;SDS011;11089;49.852;19.700;2023-05-10T11:03:40;3.72;;;2.47;;
21848;SDS011;11089;49.852;19.700;2023-05-10T11:07:15;4.78;;;2.25;;
21848;SDS011;11089;49.852;19.700;2023-05-10T11:10:20;11.30;;;5.20;;
21848;SDS011;11089;49.852;19.700;2023-05-10T11:16:43;5.63;;;2.47;;
21848;SDS011;11089;49.852;19.700;2023-05-10T11:20:01;6.03;;;2.75;;
21848;SDS011;11089;49.852;19.700;2023-05-10T11:23:12;2.92;;;2.40;;
21848;SDS011;11089;49.852;19.700;2023-05-10T11:26:15;4.35;;;2.60;;
21848;SDS011;11089;49.852;19.700;2023-05-10T11:29:17;3.17;;;2.35;;
21848;SDS011;11089;49.852;19.700;2023-05-10T11:32:19;4.47;;;2.47;;
21848;SDS011;11089;49.852;19.700;2023-05-10T11:35:19;2.65;;;2.22;;
21848;SDS011;11089;49.852;19.700;2023-05-10T11:38:20;5.15;;;2.65;;
21848;SDS011;11089;49.852;19.700;2023-05-10T11:41:22;5.03;;;2.30;;
21848;SDS011;11089;49.852;19.700;2023-05-10T11:44:32;3.22;;;2.30;;
21848;SDS011;11089;49.852;19.700;2023-05-10T11:47:33;3.47;;;2.25;;
21848;SDS011;11089;49.852;19.700;2023-05-10T11:50:37;2.72;;;2.28;;
21848;SDS011;11089;49.852;19.700;2023-05-10T11:53:38;3.20;;;2.20;;
21848;SDS011;11089;49.852;19.700;2023-05-10T11:56:39;9.30;;;4.65;;
21848;SDS011;11089;49.852;19.700;2023-05-10T11:59:40;6.57;;;3.13;;
21848;SDS011;11089;49.852;19.700;2023-05-10T12:02:41;8.90;;;5.40;;
21848;SDS011;11089;49.852;19.700;2023-05-10T12:05:42;8.80;;;3.90;;
21848;SDS011;11089;49.852;19.700;2023-05-10T12:08:44;11.07;;;6.10;;
21848;SDS011;11089;49.852;19.700;2023-05-10T12:11:46;11.02;;;6.38;;
21848;SDS011;11089;49.852;19.700;2023-05-10T12:14:50;8.90;;;4.97;;
21848;SDS011;11089;49.852;19.700;2023-05-10T12:17:51;6.07;;;3.85;;
21848;SDS011;11089;49.852;19.700;2023-05-10T12:20:52;4.00;;;2.67;;
21848;SDS011;11089;49.852;19.700;2023-05-10T12:23:59;4.28;;;2.28;;
21848;SDS011;11089;49.852;19.700;2023-05-10T12:27:05;3.20;;;2.58;;
21848;SDS011;11089;49.852;19.700;2023-05-10T12:30:08;4.18;;;2.40;;
21848;SDS011;11089;49.852;19.700;2023-05-10T12:36:17;3.28;;;2.33;;
21848;SDS011;11089;49.852;19.700;2023-05-10T12:39:24;2.78;;;2.20;;
21848;SDS011;11089;49.852;19.700;2023-05-10T12:42:25;5.63;;;2.63;;
21848;SDS011;11089;49.852;19.700;2023-05-10T12:45:25;3.60;;;2.60;;
21848;SDS011;11089;49.852;19.700;2023-05-10T12:48:26;4.28;;;2.20;;
21848;SDS011;11089;49.852;19.700;2023-05-10T12:51:28;3.28;;;2.00;;
21848;SDS011;11089;49.852;19.700;2023-05-10T12:54:30;3.13;;;1.98;;
21848;SDS011;11089;49.852;19.700;2023-05-10T12:57:31;3.88;;;2.47;;
21848;SDS011;11089;49.852;19.700;2023-05-10T13:00:32;7.10;;;3.22;;
21848;SDS011;11089;49.852;19.700;2023-05-10T13:03:33;5.88;;;3.25;;
21848;SDS011;11089;49.852;19.700;2023-05-10T13:06:34;6.80;;;2.90;;
21848;SDS011;11089;49.852;19.700;2023-05-10T13:09:35;3.10;;;2.40;;
21848;SDS011;11089;49.852;19.700;2023-05-10T13:12:36;7.18;;;3.25;;
21848;SDS011;11089;49.852;19.700;2023-05-10T13:15:37;2.42;;;2.20;;
21848;SDS011;11089;49.852;19.700;2023-05-10T13:18:38;7.28;;;2.30;;
21848;SDS011;11089;49.852;19.700;2023-05-10T13:21:39;2.10;;;1.90;;
21848;SDS011;11089;49.852;19.700;2023-05-10T13:24:41;2.75;;;2.50;;
21848;SDS011;11089;49.852;19.700;2023-05-10T13:27:41;4.15;;;2.28;;
21848;SDS011;11089;49.852;19.700;2023-05-10T13:30:42;3.10;;;2.40;;
21848;SDS011;11089;49.852;19.700;2023-05-10T13:33:43;4.68;;;2.20;;
21848;SDS011;11089;49.852;19.700;2023-05-10T13:36:44;2.45;;;2.17;;
21848;SDS011;11089;49.852;19.700;2023-05-10T13:39:45;2.70;;;2.15;;
21848;SDS011;11089;49.852;19.700;2023-05-10T13:42:46;2.63;;;2.28;;
21848;SDS011;11089;49.852;19.700;2023-05-10T13:45:46;3.22;;;1.98;;
21848;SDS011;11089;49.852;19.700;2023-05-10T13:48:47;2.33;;;2.13;;
21848;SDS011;11089;49.852;19.700;2023-05-10T13:51:48;3.97;;;2.13;;
21848;SDS011;11089;49.852;19.700;2023-05-10T13:54:49;6.65;;;2.38;;
21848;SDS011;11089;49.852;19.700;2023-05-10T13:57:52;2.47;;;2.08;;
21848;SDS011;11089;49.852;19.700;2023-05-10T14:00:52;2.47;;;2.10;;
21848;SDS011;11089;49.852;19.700;2023-05-10T14:03:53;3.65;;;2.20;;
21848;SDS011;11089;49.852;19.700;2023-05-10T14:06:54;3.42;;;2.28;;
21848;SDS011;11089;49.852;19.700;2023-05-10T14:09:56;6.35;;;2.50;;
21848;SDS011;11089;49.852;19.700;2023-05-10T14:12:57;4.18;;;2.20;;
21848;SDS011;11089;49.852;19.700;2023-05-10T14:15:58;3.45;;;2.75;;
21848;SDS011;11089;49.852;19.700;2023-05-10T14:19:00;2.60;;;2.30;;
21848;SDS011;11089;49.852;19.700;2023-05-10T14:22:01;5.03;;;2.83;;
21848;SDS011;11089;49.852;19.700;2023-05-10T14:25:02;3.30;;;2.55;;
21848;SDS011;11089;49.852;19.700;2023-05-10T14:28:03;5.28;;;2.55;;
21848;SDS011;11089;49.852;19.700;2023-05-10T14:31:04;7.25;;;2.47;;
21848;SDS011;11089;49.852;19.700;2023-05-10T14:34:06;4.32;;;2.78;;
21848;SDS011;11089;49.852;19.700;2023-05-10T14:37:09;3.90;;;2.47;;
21848;SDS011;11089;49.852;19.700;2023-05-10T14:40:11;5.28;;;2.22;;
21848;SDS011;11089;49.852;19.700;2023-05-10T14:43:12;8.57;;;2.63;;
21848;SDS011;11089;49.852;19.700;2023-05-10T14:46:13;2.97;;;2.58;;
21848;SDS011;11089;49.852;19.700;2023-05-10T14:49:14;3.03;;;2.20;;
21848;SDS011;11089;49.852;19.700;2023-05-10T14:52:15;6.55;;;2.10;;
21848;SDS011;11089;49.852;19.700;2023-05-10T14:55:16;2.55;;;2.28;;
21848;SDS011;11089;49.852;19.700;2023-05-10T14:58:17;4.95;;;2.50;;
21848;SDS011;11089;49.852;19.700;2023-05-10T15:01:18;3.22;;;2.45;;
21848;SDS011;11089;49.852;19.700;2023-05-10T15:04:19;3.65;;;2.40;;
21848;SDS011;11089;49.852;19.700;2023-05-10T15:07:21;3.33;;;2.30;;
21848;SDS011;11089;49.852;19.700;2023-05-10T15:10:22;4.13;;;2.33;;
21848;SDS011;11089;49.852;19.700;2023-05-10T15:13:23;2.60;;;2.20;;
21848;SDS011;11089;49.852;19.700;2023-05-10T15:16:24;10.43;;;2.85;;
21848;SDS011;11089;49.852;19.700;2023-05-10T15:19:25;4.22;;;2.75;;
21848;SDS011;11089;49.852;19.700;2023-05-10T15:22:26;4.60;;;2.60;;
21848;SDS011;11089;49.852;19.700;2023-05-10T15:25:28;5.85;;;2.70;;
21848;SDS011;11089;49.852;19.700;2023-05-10T15:28:29;3.30;;;2.65;;
21848;SDS011;11089;49.852;19.700;2023-05-10T15:31:30;5.88;;;2.60;;
21848;SDS011;11089;49.852;19.700;2023-05-10T15:34:31;4.88;;;2.67;;
21848;SDS011;11089;49.852;19.700;2023-05-10T15:37:32;2.90;;;2.53;;
21848;SDS011;11089;49.852;19.700;2023-05-10T15:40:32;3.50;;;2.45;;
21848;SDS011;11089;49.852;19.700;2023-05-10T15:43:33;3.63;;;2.17;;
21848;SDS011;11089;49.852;19.700;2023-05-10T15:46:35;2.92;;;2.45;;
21848;SDS011;11089;49.852;19.700;2023-05-10T15:49:37;4.03;;;2.47;;
21848;SDS011;11089;49.852;19.700;2023-05-10T15:52:38;2.88;;;2.13;;
21848;SDS011;11089;49.852;19.700;2023-05-10T15:55:39;4.57;;;2.70;;
21848;SDS011;11089;49.852;19.700;2023-05-10T15:58:40;5.95;;;2.78;;
21848;SDS011;11089;49.852;19.700;2023-05-10T16:01:43;3.47;;;2.80;;
21848;SDS011;11089;49.852;19.700;2023-05-10T16:04:44;3.10;;;2.30;;
21848;SDS011;11089;49.852;19.700;2023-05-10T16:07:45;3.35;;;2.53;;
21848;SDS011;11089;49.852;19.700;2023-05-10T16:10:46;6.85;;;2.70;;
21848;SDS011;11089;49.852;19.700;2023-05-10T16:13:48;3.45;;;2.60;;
21848;SDS011;11089;49.852;19.700;2023-05-10T16:16:49;7.22;;;2.78;;
21848;SDS011;11089;49.852;19.700;2023-05-10T16:19:50;6.70;;;2.92;;
21848;SDS011;11089;49.852;19.700;2023-05-10T16:22:51;5.25;;;2.30;;
21848;SDS011;11089;49.852;19.700;2023-05-10T16:25:52;4.35;;;2.67;;
21848;SDS011;11089;49.852;19.700;2023-05-10T16:28:53;3.53;;;2.55;;
21848;SDS011;11089;49.852;19.700;2023-05-10T16:31:54;2.47;;;2.25;;
21848;SDS011;11089;49.852;19.700;2023-05-10T16:34:55;3.70;;;2.60;;
21848;SDS011;11089;49.852;19.700;2023-05-10T16:37:56;5.82;;;2.80;;
21848;SDS011;11089;49.852;19.700;2023-05-10T16:40:57;5.25;;;2.90;;
21848;SDS011;11089;49.852;19.700;2023-05-10T16:44:01;2.97;;;2.67;;
21848;SDS011;11089;49.852;19.700;2023-05-10T16:47:02;5.45;;;2.75;;
21848;SDS011;11089;49.852;19.700;2023-05-10T16:50:04;3.35;;;2.60;;
21848;SDS011;11089;49.852;19.700;2023-05-10T16:53:06;4.47;;;2.80;;
21848;SDS011;11089;49.852;19.700;2023-05-10T16:56:07;5.13;;;2.90;;
21848;SDS011;11089;49.852;19.700;2023-05-10T16:59:09;5.30;;;2.53;;
21848;SDS011;11089;49.852;19.700;2023-05-10T17:02:09;7.38;;;3.28;;
21848;SDS011;11089;49.852;19.700;2023-05-10T17:05:10;5.50;;;2.85;;
21848;SDS011;11089;49.852;19.700;2023-05-10T17:08:12;3.88;;;2.60;;
21848;SDS011;11089;49.852;19.700;2023-05-10T17:11:12;4.47;;;2.90;;
21848;SDS011;11089;49.852;19.700;2023-05-10T17:14:13;4.57;;;3.03;;
21848;SDS011;11089;49.852;19.700;2023-05-10T17:17:14;4.72;;;2.88;;
21848;SDS011;11089;49.852;19.700;2023-05-10T17:20:15;6.60;;;3.67;;
21848;SDS011;11089;49.852;19.700;2023-05-10T17:23:16;4.68;;;3.15;;
21848;SDS011;11089;49.852;19.700;2023-05-10T17:26:17;5.18;;;3.58;;
21848;SDS011;11089;49.852;19.700;2023-05-10T17:29:18;5.55;;;3.08;;
21848;SDS011;11089;49.852;19.700;2023-05-10T17:32:19;5.13;;;3.00;;
21848;SDS011;11089;49.852;19.700;2023-05-10T17:35:20;7.68;;;3.70;;
21848;SDS011;11089;49.852;19.700;2023-05-10T17:38:21;6.38;;;3.40;;
21848;SDS011;11089;49.852;19.700;2023-05-10T17:41:22;9.50;;;3.53;;
21848;SDS011;11089;49.852;19.700;2023-05-10T17:44:23;4.82;;;3.20;;
21848;SDS011;11089;49.852;19.700;2023-05-10T17:47:25;5.55;;;3.28;;
21848;SDS011;11089;49.852;19.700;2023-05-10T17:50:27;7.82;;;3.28;;
21848;SDS011;11089;49.852;19.700;2023-05-10T17:53:28;7.05;;;3.60;;
21848;SDS011;11089;49.852;19.700;2023-05-10T17:56:29;5.75;;;3.30;;
21848;SDS011;11089;49.852;19.700;2023-05-10T17:59:30;4.03;;;3.10;;
21848;SDS011;11089;49.852;19.700;2023-05-10T18:02:31;8.02;;;3.42;;
21848;SDS011;11089;49.852;19.700;2023-05-10T18:05:35;7.45;;;3.30;;
21848;SDS011;11089;49.852;19.700;2023-05-10T18:08:36;5.75;;;3.47;;
21848;SDS011;11089;49.852;19.700;2023-05-10T18:11:37;6.45;;;3.78;;
21848;SDS011;11089;49.852;19.700;2023-05-10T18:14:39;6.60;;;4.28;;
21848;SDS011;11089;49.852;19.700;2023-05-10T18:17:40;9.77;;;3.70;;
21848;SDS011;11089;49.852;19.700;2023-05-10T18:20:40;7.65;;;3.72;;
21848;SDS011;11089;49.852;19.700;2023-05-10T18:23:42;7.35;;;4.10;;
21848;SDS011;11089;49.852;19.700;2023-05-10T18:26:43;6.55;;;3.47;;
21848;SDS011;11089;49.852;19.700;2023-05-10T18:29:44;6.55;;;4.20;;
21848;SDS011;11089;49.852;19.700;2023-05-10T18:32:45;6.75;;;3.83;;
21848;SDS011;11089;49.852;19.700;2023-05-10T18:35:46;7.05;;;3.92;;
21848;SDS011;11089;49.852;19.700;2023-05-10T18:38:47;7.40;;;4.38;;
21848;SDS011;11089;49.852;19.700;2023-05-10T18:41:48;5.32;;;3.90;;